Time;durP1;ratioP1;P1;durP2;ratioP2;P2;SDS_P1;SDS_P2;PMS_P1;PMS_P2;Temp;Humidity;BMP_temperature;BMP_pressure;BME280_temperature;BME280_humidity;BME280_pressure;Samples;Min_cycle;Max_cycle;Signal;HPM_P1;HPM_P2
2022/09/15 00:00:57;;;;;;;0.70;0.70;;;;;;;24.06;39.70;94916.88;5033107;28;20288;-68
2022/09/15 00:03:24;;;;;;;0.20;0.20;;;;;;;22.95;42.02;94913.00;5044823;28;20208;-67
2022/09/15 00:05:53;;;;;;;0.47;0.30;;;;;;;23.52;40.75;94912.94;5052834;28;20435;-69
2022/09/15 00:08:21;;;;;;;1.07;0.90;;;;;;;23.83;40.80;94923.84;5053327;28;20451;-68
2022/09/15 00:10:57;;;;;;;0.43;0.43;;;;;;;23.80;40.59;94919.13;5050396;28;20242;-66
2022/09/15 00:13:24;;;;;;;0.43;0.43;;;;;;;23.31;40.97;94931.00;5042618;28;20449;-68
2022/09/15 00:15:52;;;;;;;0.53;0.53;;;;;;;23.41;41.42;94922.53;5036912;28;20260;-67
2022/09/15 00:18:19;;;;;;;2.47;1.43;;;;;;;23.70;41.04;94925.72;5041112;28;20717;-69
2022/09/15 00:20:46;;;;;;;0.50;0.50;;;;;;;23.60;40.86;94925.41;5036705;28;20456;-67
2022/09/15 00:23:15;;;;;;;0.30;0.30;;;;;;;23.31;40.74;94933.66;5038921;28;20466;-68
2022/09/15 00:25:50;;;;;;;0.63;0.63;;;;;;;23.62;40.91;94928.53;5052565;28;20280;-67
2022/09/15 00:28:20;;;;;;;1.07;0.60;;;;;;;23.79;40.03;94925.63;5038882;28;20442;-69
2022/09/15 00:30:49;;;;;;;1.50;0.93;;;;;;;23.69;40.23;94926.06;5039567;28;20205;-70
2022/09/15 00:33:17;;;;;;;0.30;0.30;;;;;;;23.92;39.79;94921.81;5032507;28;20193;-68
2022/09/15 00:35:46;;;;;;;0.43;0.43;;;;;;;24.00;38.76;94923.56;5032229;28;20193;-68
2022/09/15 00:38:14;;;;;;;0.37;0.37;;;;;;;23.83;38.41;94918.47;5046379;28;20197;-70
2022/09/15 00:40:53;;;;;;;0.60;0.60;;;;;;;23.88;38.42;94920.91;5032664;28;20195;-69
2022/09/15 00:43:41;;;;;;;0.20;0.20;;;;;;;23.93;39.11;94918.00;5050131;28;20232;-68
2022/09/15 00:46:08;;;;;;;0.33;0.33;;;;;;;23.86;39.41;94931.19;5052111;28;20192;-68
2022/09/15 00:48:39;;;;;;;1.90;0.87;;;;;;;23.71;39.07;94916.59;5037955;28;20207;-66
2022/09/15 00:51:09;;;;;;;0.60;0.60;;;;;;;23.23;40.66;94931.88;5040474;28;20205;-67
2022/09/15 00:53:36;;;;;;;1.03;0.93;;;;;;;23.33;41.59;94942.91;5031028;28;20210;-69
2022/09/15 00:56:05;;;;;;;0.73;0.57;;;;;;;23.37;41.27;94927.00;5032427;28;20258;-68
2022/09/15 00:58:40;;;;;;;0.40;0.40;;;;;;;23.39;41.20;94935.47;5048013;28;20258;-69
2022/09/15 01:01:07;;;;;;;0.23;0.23;;;;;;;23.22;41.95;94927.63;5035109;28;20199;-66
2022/09/15 01:03:35;;;;;;;0.53;0.53;;;;;;;22.62;43.00;94933.63;5030737;28;20221;-68
2022/09/15 01:06:18;;;;;;;0.20;0.20;;;;;;;22.80;42.10;94902.97;5031674;28;20196;-66
2022/09/15 01:08:51;;;;;;;0.63;0.63;;;;;;;23.20;41.66;94921.81;5035305;28;20452;-66
2022/09/15 01:11:18;;;;;;;9.00;1.27;;;;;;;23.04;42.11;94930.50;5041503;28;20443;-69
2022/09/15 01:13:45;;;;;;;0.73;0.73;;;;;;;23.17;41.34;94921.38;5039274;28;20284;-68
2022/09/15 01:16:50;;;;;;;0.30;0.30;;;;;;;23.01;41.27;94925.81;5031283;28;21021;-69
2022/09/15 01:20:05;;;;;;;0.30;0.30;;;;;;;23.13;41.18;94923.16;5033703;28;20497;-67
2022/09/15 01:22:35;;;;;;;0.40;0.40;;;;;;;23.02;40.43;94918.59;5036118;28;20491;-68
2022/09/15 01:25:41;;;;;;;3.60;1.43;;;;;;;22.61;42.28;94916.81;5031505;28;20503;-69
2022/09/15 01:28:16;;;;;;;0.40;0.40;;;;;;;21.42;45.10;94921.19;5053748;28;20514;-68
2022/09/15 01:30:55;;;;;;;0.33;0.27;;;;;;;22.03;43.52;94917.81;5043979;28;20956;-67
2022/09/15 01:33:34;;;;;;;0.50;0.50;;;;;;;22.60;42.44;94915.28;5031497;28;20526;-68
2022/09/15 01:36:09;;;;;;;0.57;0.57;;;;;;;22.55;42.78;94923.50;5045025;28;20469;-65
2022/09/15 01:38:59;;;;;;;0.17;0.17;;;;;;;22.37;43.12;94916.72;5050926;28;20461;-67
2022/09/15 01:41:33;;;;;;;0.40;0.40;;;;;;;22.55;42.81;94926.19;5051056;28;20486;-68
2022/09/15 01:44:08;;;;;;;0.47;0.47;;;;;;;22.68;42.50;94932.34;5050750;28;20482;-68
2022/09/15 01:46:46;;;;;;;0.50;0.50;;;;;;;22.70;42.21;94925.53;5034089;28;20444;-67
2022/09/15 01:49:19;;;;;;;4.83;1.53;;;;;;;22.91;41.69;94915.56;5041656;28;20945;-69
2022/09/15 01:51:49;;;;;;;0.30;0.30;;;;;;;22.92;41.72;94930.47;5033225;28;20458;-69
2022/09/15 01:54:21;;;;;;;1.97;1.23;;;;;;;22.52;42.04;94920.66;5040770;28;21204;-66
2022/09/15 01:56:48;;;;;;;0.50;0.50;;;;;;;22.73;42.17;94914.22;5037663;28;20938;-67
2022/09/15 01:59:15;;;;;;;9.93;0.87;;;;;;;22.84;42.16;94925.25;5050103;28;21005;-66
2022/09/15 02:01:51;;;;;;;11.03;1.20;;;;;;;22.33;42.95;94915.84;5051222;28;20450;-68
2022/09/15 02:04:32;;;;;;;0.37;0.37;;;;;;;22.48;42.57;94912.53;5045620;28;20961;-70
2022/09/15 02:07:20;;;;;;;0.27;0.27;;;;;;;22.62;42.09;94913.06;5030408;28;20502;-68
2022/09/15 02:10:13;;;;;;;0.30;0.30;;;;;;;22.85;42.17;94905.41;5031034;28;20531;-68
2022/09/15 02:13:15;;;;;;;0.23;0.23;;;;;;;22.92;41.67;94901.09;5034646;28;20444;-69
2022/09/15 02:15:54;;;;;;;1.13;0.90;;;;;;;22.49;42.32;94903.41;5050489;28;21009;-67
2022/09/15 02:18:33;;;;;;;0.50;0.50;;;;;;;22.33;42.90;94907.81;5042154;28;20439;-69
2022/09/15 02:21:17;;;;;;;0.43;0.43;;;;;;;22.51;41.85;94901.19;5033015;28;20444;-68
2022/09/15 02:23:52;;;;;;;0.40;0.40;;;;;;;22.77;40.85;94903.63;5038939;28;20451;-67
2022/09/15 02:26:25;;;;;;;1.37;0.97;;;;;;;22.93;41.15;94897.31;5048124;28;20508;-69
2022/09/15 02:28:56;;;;;;;0.30;0.30;;;;;;;23.10;41.05;94913.13;5039361;28;20452;-66
2022/09/15 02:31:26;;;;;;;0.80;0.80;;;;;;;23.06;41.11;94901.53;5043958;28;20517;-69
2022/09/15 02:33:58;;;;;;;0.40;0.40;;;;;;;23.07;40.79;94903.09;5040321;28;20512;-67
2022/09/15 02:36:27;;;;;;;0.30;0.30;;;;;;;22.71;41.50;94900.41;5035778;28;20468;-68
2022/09/15 02:39:08;;;;;;;0.73;0.30;;;;;;;22.18;42.99;94905.75;5040470;28;20505;-66
2022/09/15 02:41:36;;;;;;;0.83;0.83;;;;;;;22.28;43.15;94896.56;5044303;28;20582;-67
2022/09/15 02:44:03;;;;;;;0.43;0.43;;;;;;;22.05;43.93;94898.78;5039531;28;20478;-66
2022/09/15 02:46:30;;;;;;;0.27;0.27;;;;;;;22.30;43.09;94895.13;5047522;28;20196;-67
2022/09/15 02:48:56;;;;;;;0.70;0.70;;;;;;;22.40;43.09;94899.28;5037979;28;20574;-69
2022/09/15 02:51:23;;;;;;;1.27;1.13;;;;;;;22.48;43.37;94907.19;5035558;28;20451;-68
2022/09/15 02:53:50;;;;;;;0.43;0.43;;;;;;;22.57;43.46;94905.22;5043631;28;20440;-66
2022/09/15 02:56:17;;;;;;;0.97;0.97;;;;;;;22.47;43.59;94900.28;5030032;28;20523;-69
2022/09/15 02:58:44;;;;;;;0.73;0.73;;;;;;;22.29;43.72;94904.25;5043578;28;20465;-67
2022/09/15 03:01:16;;;;;;;0.50;0.50;;;;;;;22.31;43.81;94907.38;5037473;28;20218;-67
2022/09/15 03:03:44;;;;;;;0.50;0.50;;;;;;;22.30;43.76;94905.78;5036182;28;21154;-66
2022/09/15 03:06:15;;;;;;;0.30;0.30;;;;;;;22.50;43.13;94890.84;5036588;28;20497;-68
2022/09/15 03:08:46;;;;;;;0.80;0.80;;;;;;;21.97;44.41;94886.28;5050526;28;20443;-65
2022/09/15 03:11:14;;;;;;;0.40;0.40;;;;;;;22.34;43.62;94901.34;5037052;28;20478;-67
2022/09/15 03:13:42;;;;;;;0.20;0.20;;;;;;;22.40;43.54;94910.72;5049067;28;20834;-65
2022/09/15 03:16:10;;;;;;;0.93;0.93;;;;;;;22.32;43.43;94914.25;5049486;28;20192;-66
2022/09/15 03:18:38;;;;;;;0.30;0.30;;;;;;;22.36;43.57;94920.50;5038860;28;20443;-67
2022/09/15 03:21:08;;;;;;;0.80;0.63;;;;;;;22.07;43.79;94917.94;5046726;28;20525;-68
2022/09/15 03:23:35;;;;;;;0.20;0.20;;;;;;;22.19;43.70;94931.31;5053861;28;20458;-66
2022/09/15 03:26:03;;;;;;;0.57;0.57;;;;;;;22.40;43.45;94933.97;5052303;28;20488;-69
2022/09/15 03:28:30;;;;;;;1.23;1.13;;;;;;;22.24;43.17;94933.81;5040511;28;20446;-67
2022/09/15 03:30:57;;;;;;;0.40;0.40;;;;;;;22.17;43.43;94933.53;5052299;28;20534;-68
2022/09/15 03:33:24;;;;;;;0.40;0.40;;;;;;;22.37;43.44;94927.41;5046977;28;21015;-68
2022/09/15 03:35:52;;;;;;;1.03;0.97;;;;;;;22.05;43.92;94925.47;5046270;28;20437;-67
2022/09/15 03:38:19;;;;;;;3.50;1.70;;;;;;;21.17;45.38;94918.66;5039321;28;20461;-67
2022/09/15 03:41:03;;;;;;;0.40;0.40;;;;;;;21.11;45.73;94932.13;5053143;28;20438;-69
2022/09/15 03:43:31;;;;;;;0.53;0.53;;;;;;;21.75;44.78;94937.28;5047600;28;20541;-68
2022/09/15 03:45:58;;;;;;;1.03;1.00;;;;;;;21.99;44.74;94932.13;5045171;28;20483;-66
2022/09/15 03:48:27;;;;;;;0.50;0.50;;;;;;;21.92;44.84;94942.53;5053452;28;20439;-67
2022/09/15 03:50:55;;;;;;;0.40;0.40;;;;;;;22.00;44.27;94925.69;5043473;28;20439;-67
2022/09/15 03:53:22;;;;;;;2.40;1.63;;;;;;;22.06;44.43;94932.41;5035085;28;20436;-68
2022/09/15 03:55:49;;;;;;;3.90;1.90;;;;;;;21.77;45.26;94925.19;5048321;28;20436;-69
2022/09/15 03:58:17;;;;;;;1.17;1.10;;;;;;;21.95;44.82;94926.66;5044247;28;21004;-67
2022/09/15 04:00:45;;;;;;;1.73;0.43;;;;;;;22.02;44.51;94926.16;5043155;28;20550;-66
2022/09/15 04:03:12;;;;;;;0.57;0.57;;;;;;;21.72;44.75;94921.94;5054476;28;20451;-65
2022/09/15 04:05:40;;;;;;;1.33;0.73;;;;;;;21.64;45.44;94928.88;5038785;28;20887;-69
2022/09/15 04:08:10;;;;;;;0.50;0.50;;;;;;;21.58;45.81;94926.72;5052605;28;20508;-68
2022/09/15 04:10:39;;;;;;;0.10;0.10;;;;;;;21.78;45.03;94923.31;5052810;28;20471;-67
2022/09/15 04:13:05;;;;;;;0.50;0.50;;;;;;;21.59;44.76;94928.28;5053086;28;20510;-68
2022/09/15 04:15:32;;;;;;;0.43;0.43;;;;;;;21.58;44.48;94926.72;5051790;28;20523;-65
2022/09/15 04:17:59;;;;;;;3.20;1.27;;;;;;;20.97;45.38;94934.19;5052760;28;20500;-68
2022/09/15 04:20:26;;;;;;;0.67;0.67;;;;;;;21.17;45.52;94937.31;5041244;28;20443;-68
2022/09/15 04:22:53;;;;;;;0.30;0.30;;;;;;;21.12;45.63;94925.72;5046626;28;20487;-66
2022/09/15 04:25:20;;;;;;;1.03;1.00;;;;;;;21.02;45.84;94923.41;5032572;28;20503;-66
2022/09/15 04:27:47;;;;;;;0.30;0.30;;;;;;;20.90;45.82;94919.81;5048872;28;20470;-67
2022/09/15 04:30:14;;;;;;;1.03;0.93;;;;;;;21.12;45.53;94920.38;5044067;28;20451;-69
2022/09/15 04:32:40;;;;;;;0.70;0.70;;;;;;;21.28;45.13;94922.50;5046963;28;20438;-67
2022/09/15 04:35:07;;;;;;;1.80;1.03;;;;;;;21.47;44.89;94926.31;5052293;28;20544;-66
2022/09/15 04:37:34;;;;;;;0.33;0.33;;;;;;;21.64;44.38;94922.78;5052307;28;20493;-68
2022/09/15 04:40:02;;;;;;;0.90;0.90;;;;;;;21.82;44.03;94926.91;5047605;28;20860;-69
2022/09/15 04:42:29;;;;;;;0.20;0.20;;;;;;;21.76;43.92;94928.19;5043303;28;20976;-67
2022/09/15 04:44:56;;;;;;;1.70;1.07;;;;;;;21.95;43.54;94931.97;5051735;28;20478;-70
2022/09/15 04:47:23;;;;;;;0.87;0.77;;;;;;;22.07;42.91;94923.28;5052202;28;20443;-69
2022/09/15 04:49:50;;;;;;;5.93;1.10;;;;;;;22.25;42.00;94908.66;5050582;28;20435;-66
2022/09/15 04:52:17;;;;;;;0.63;0.63;;;;;;;22.52;41.83;94929.47;5031927;28;20440;-69
2022/09/15 04:54:44;;;;;;;1.20;0.77;;;;;;;22.40;43.34;94923.28;5045482;28;20546;-69
2022/09/15 04:57:11;;;;;;;0.97;0.97;;;;;;;22.47;43.15;94921.66;5032060;28;20455;-67
2022/09/15 04:59:38;;;;;;;0.67;0.67;;;;;;;22.50;42.89;94931.66;5031837;28;20614;-67
2022/09/15 05:02:04;;;;;;;9.77;1.50;;;;;;;22.32;43.18;94935.63;5031868;28;20486;-68
2022/09/15 05:04:31;;;;;;;3.40;1.67;;;;;;;22.29;43.10;94938.94;5038112;28;20926;-67
2022/09/15 05:06:58;;;;;;;0.40;0.40;;;;;;;21.77;44.46;94914.50;5039052;28;20455;-69
2022/09/15 05:09:28;;;;;;;0.50;0.50;;;;;;;21.54;44.72;94931.13;5045236;28;20915;-66
2022/09/15 05:11:55;;;;;;;1.37;0.80;;;;;;;21.98;43.86;94930.56;5042900;28;20431;-67
2022/09/15 05:14:22;;;;;;;0.70;0.50;;;;;;;22.00;44.83;94925.69;5051128;28;21103;-68
2022/09/15 05:16:49;;;;;;;0.70;0.70;;;;;;;22.06;44.96;94921.72;5051576;28;20450;-69
2022/09/15 05:19:15;;;;;;;0.60;0.60;;;;;;;22.10;43.98;94922.59;5037126;28;20817;-68
2022/09/15 05:21:42;;;;;;;0.87;0.87;;;;;;;22.14;43.93;94924.31;5051618;28;20447;-68
2022/09/15 05:24:09;;;;;;;2.30;2.10;;;;;;;22.04;42.71;94913.25;5051385;28;20949;-68
2022/09/15 05:26:36;;;;;;;1.03;0.93;;;;;;;22.20;43.89;94914.22;5051154;28;20486;-65
2022/09/15 05:29:04;;;;;;;0.30;0.30;;;;;;;22.52;43.87;94897.41;5051551;28;20454;-68
2022/09/15 05:31:32;;;;;;;0.80;0.80;;;;;;;22.64;43.77;94910.84;5037539;28;20447;-66
2022/09/15 05:34:03;;;;;;;0.67;0.67;;;;;;;22.70;43.80;94909.50;5051479;28;20443;-67
2022/09/15 05:36:31;;;;;;;1.20;1.10;;;;;;;22.69;43.94;94913.28;5051450;28;20581;-68
2022/09/15 05:38:58;;;;;;;0.33;0.33;;;;;;;22.67;43.96;94899.50;5057755;28;20205;-66
2022/09/15 05:41:26;;;;;;;2.10;0.90;;;;;;;23.09;43.09;94895.53;5034963;28;20197;-65
2022/09/15 05:43:55;;;;;;;1.47;1.37;;;;;;;23.13;43.27;94901.00;5031281;28;20464;-68
2022/09/15 05:46:24;;;;;;;0.97;0.97;;;;;;;23.45;42.84;94884.06;5045112;28;20259;-69
2022/09/15 05:48:53;;;;;;;0.67;0.67;;;;;;;23.20;43.46;94895.09;5038237;28;20538;-67
2022/09/15 05:51:21;;;;;;;0.70;0.70;;;;;;;22.89;44.18;94885.72;5036641;28;20531;-68
2022/09/15 05:53:47;;;;;;;1.80;1.70;;;;;;;22.49;45.28;94887.41;5050722;28;20199;-68
2022/09/15 05:56:16;;;;;;;0.77;0.77;;;;;;;22.92;44.73;94882.38;5042608;28;20454;-69
2022/09/15 05:58:45;;;;;;;1.40;1.33;;;;;;;23.23;44.60;94886.41;5045393;28;20204;-71
2022/09/15 06:01:15;;;;;;;0.50;0.50;;;;;;;22.44;44.27;94858.25;5038503;28;20189;-67
2022/09/15 06:03:43;;;;;;;1.60;1.23;;;;;;;23.62;42.41;94862.44;5050921;28;20196;-66
2022/09/15 06:06:11;;;;;;;0.30;0.30;;;;;;;23.95;40.98;94878.28;5050553;28;20220;-66
2022/09/15 06:08:43;;;;;;;1.50;0.70;;;;;;;24.07;40.71;94871.03;5050470;28;20205;-69
2022/09/15 06:11:19;;;;;;;1.07;0.97;;;;;;;24.24;40.47;94864.59;5050633;28;20200;-69
2022/09/15 06:13:46;;;;;;;0.80;0.80;;;;;;;24.16;39.82;94870.88;5038285;28;20201;-67
2022/09/15 06:16:18;;;;;;;2.17;1.67;;;;;;;23.94;39.37;94877.50;5049588;28;20227;-67
2022/09/15 06:18:47;;;;;;;0.67;0.67;;;;;;;24.31;38.74;94885.44;5050475;28;20204;-67
2022/09/15 06:21:17;;;;;;;0.77;0.77;;;;;;;24.36;39.65;94888.63;5048909;28;20674;-68
2022/09/15 06:23:44;;;;;;;1.43;1.23;;;;;;;24.43;39.50;94888.84;5050728;28;20678;-67
2022/09/15 06:26:18;;;;;;;0.50;0.50;;;;;;;24.30;40.39;94899.94;5035666;28;20235;-67
2022/09/15 06:28:52;;;;;;;1.07;0.97;;;;;;;24.23;40.18;94881.81;5050451;28;20275;-68
2022/09/15 06:31:19;;;;;;;0.40;0.40;;;;;;;24.42;40.61;94857.03;5050509;28;20220;-68
2022/09/15 06:33:50;;;;;;;0.40;0.40;;;;;;;24.47;40.63;94873.63;5040615;28;20657;-69
2022/09/15 06:36:18;;;;;;;0.57;0.57;;;;;;;24.76;40.47;94875.94;5046091;28;20288;-69
2022/09/15 06:38:46;;;;;;;0.47;0.47;;;;;;;24.08;42.25;94867.25;5049918;28;20204;-69
2022/09/15 06:41:14;;;;;;;1.87;0.73;;;;;;;23.70;41.83;94868.78;5048882;28;20220;-68
2022/09/15 06:43:42;;;;;;;0.77;0.77;;;;;;;24.60;40.49;94867.09;5036866;28;20228;-68
2022/09/15 06:46:11;;;;;;;0.43;0.43;;;;;;;24.39;40.82;94871.13;5049676;28;20224;-66
2022/09/15 06:48:39;;;;;;;2.40;1.50;;;;;;;24.40;41.02;94873.44;5049500;28;20196;-68
2022/09/15 06:51:09;;;;;;;0.77;0.50;;;;;;;24.90;40.20;94865.59;5037558;28;20605;-68
2022/09/15 06:53:37;;;;;;;1.27;1.17;;;;;;;24.78;39.01;94859.53;5033931;28;20207;-67
2022/09/15 06:56:10;;;;;;;0.73;0.73;;;;;;;24.73;39.04;94884.69;5042209;28;20193;-66
2022/09/15 06:58:39;;;;;;;1.10;1.00;;;;;;;24.95;38.46;94889.47;5044110;28;20207;-69
2022/09/15 07:01:09;;;;;;;0.67;0.67;;;;;;;25.22;37.59;94892.41;5035702;28;20188;-67
2022/09/15 07:03:39;;;;;;;0.50;0.50;;;;;;;24.96;38.36;94892.94;5037296;28;20212;-68
2022/09/15 07:06:07;;;;;;;0.50;0.50;;;;;;;24.61;39.72;94890.09;5044422;28;20315;-66
2022/09/15 07:08:34;;;;;;;0.30;0.30;;;;;;;25.35;37.61;94894.63;5054263;28;20201;-66
2022/09/15 07:11:00;;;;;;;1.37;0.87;;;;;;;25.75;37.32;94903.22;5054811;28;20196;-69
2022/09/15 07:13:27;;;;;;;1.10;0.77;;;;;;;25.77;37.38;94897.50;5039889;28;20208;-69
2022/09/15 07:16:01;;;;;;;0.50;0.50;;;;;;;25.86;38.13;94906.16;5043976;28;20196;-68
2022/09/15 07:18:28;;;;;;;0.60;0.60;;;;;;;26.03;36.79;94911.13;5039032;28;20204;-69
2022/09/15 07:21:00;;;;;;;1.33;1.23;;;;;;;26.02;36.15;94914.94;5035405;28;20674;-69
2022/09/15 07:23:29;;;;;;;1.60;1.20;;;;;;;25.71;37.59;94921.16;5041240;28;20292;-68
2022/09/15 07:26:11;;;;;;;2.77;1.17;;;;;;;25.88;36.46;94925.38;5044343;28;20366;-69
2022/09/15 07:28:41;;;;;;;0.50;0.50;;;;;;;26.01;36.11;94929.50;5040389;28;20315;-68
2022/09/15 07:31:10;;;;;;;3.03;1.13;;;;;;;26.42;35.09;94933.44;5043320;28;20200;-67
2022/09/15 07:33:37;;;;;;;0.80;0.80;;;;;;;26.39;36.05;94942.97;5037543;28;20598;-69
2022/09/15 07:36:06;;;;;;;0.40;0.40;;;;;;;26.61;34.60;94942.25;5048841;28;20196;-68
2022/09/15 07:38:34;;;;;;;0.60;0.60;;;;;;;26.25;35.93;94945.38;5049670;28;20288;-69
2022/09/15 07:41:03;;;;;;;0.97;0.77;;;;;;;26.84;35.02;94945.78;5049397;28;20258;-69
2022/09/15 07:43:30;;;;;;;0.60;0.60;;;;;;;26.91;34.77;94934.41;5048899;28;20783;-69
2022/09/15 07:46:01;;;;;;;1.17;1.10;;;;;;;26.82;34.87;94937.31;5037493;28;20729;-69
2022/09/15 07:48:28;;;;;;;0.80;0.73;;;;;;;26.81;34.79;94930.38;5029572;28;20204;-69
2022/09/15 07:50:55;;;;;;;0.23;0.23;;;;;;;26.86;34.08;94919.31;5029373;28;20201;-69
2022/09/15 07:53:22;;;;;;;1.23;1.13;;;;;;;26.48;33.69;94923.94;5045859;28;20300;-67
2022/09/15 07:55:52;;;;;;;0.47;0.47;;;;;;;27.11;33.17;94921.69;5047413;28;20568;-69
2022/09/15 07:58:20;;;;;;;0.50;0.50;;;;;;;26.73;34.59;94923.31;5029669;28;20701;-71
2022/09/15 08:00:46;;;;;;;0.97;0.93;;;;;;;27.15;34.01;94923.31;5033132;28;20258;-67
2022/09/15 08:03:14;;;;;;;0.30;0.30;;;;;;;27.31;32.25;94920.50;5039143;28;20748;-68
2022/09/15 08:05:41;;;;;;;1.33;1.23;;;;;;;26.76;32.38;94925.31;5043045;28;20263;-69
2022/09/15 08:08:12;;;;;;;0.50;0.50;;;;;;;27.16;32.31;94914.09;5029358;28;20205;-69
2022/09/15 08:10:40;;;;;;;1.13;0.60;;;;;;;27.32;33.49;94922.81;5043929;28;20201;-68
2022/09/15 08:13:07;;;;;;;1.17;0.63;;;;;;;26.99;32.34;94915.34;5052124;28;20584;-69
2022/09/15 08:15:36;;;;;;;0.67;0.67;;;;;;;27.99;31.78;94913.09;5052817;28;20208;-69
2022/09/15 08:18:04;;;;;;;0.97;0.83;;;;;;;27.64;31.70;94897.19;5032602;28;20236;-70
2022/09/15 08:20:32;;;;;;;0.70;0.70;;;;;;;28.16;31.94;94907.16;5031832;28;20236;-69
2022/09/15 08:22:59;;;;;;;0.43;0.43;;;;;;;27.90;33.17;94904.47;5019366;28;20308;-70
2022/09/15 08:25:26;;;;;;;0.73;0.73;;;;;;;27.93;34.18;94883.00;5040488;28;20197;-69
2022/09/15 08:27:55;;;;;;;1.10;0.97;;;;;;;27.97;34.04;94904.59;5034937;28;20188;-70
2022/09/15 08:30:23;;;;;;;0.30;0.30;;;;;;;28.44;31.69;94896.72;5052928;28;20184;-70
2022/09/15 08:32:50;;;;;;;3.50;0.93;;;;;;;28.88;31.63;94889.50;5037004;28;20255;-69
2022/09/15 08:35:18;;;;;;;5.13;0.93;;;;;;;28.98;31.22;94888.81;5052684;28;20632;-68
2022/09/15 08:37:45;;;;;;;1.37;0.97;;;;;;;28.45;32.24;94879.38;5051855;28;20849;-69
2022/09/15 08:40:22;;;;;;;0.37;0.37;;;;;;;28.40;33.07;94885.13;5052434;28;20220;-68
2022/09/15 08:42:52;;;;;;;1.10;0.53;;;;;;;29.16;31.62;94875.50;5051881;28;20231;-69
2022/09/15 08:45:24;;;;;;;1.00;1.00;;;;;;;29.40;30.28;94869.53;5046300;28;20628;-70
2022/09/15 08:47:58;;;;;;;0.70;0.70;;;;;;;29.06;31.95;94859.19;5033038;28;20201;-70
2022/09/15 08:50:28;;;;;;;4.80;1.00;;;;;;;28.96;31.96;94872.22;5033038;28;20254;-71
2022/09/15 08:53:15;;;;;;;1.20;1.10;;;;;;;29.41;31.75;94883.81;5044934;28;20193;-69
2022/09/15 08:55:45;;;;;;;0.40;0.40;;;;;;;29.51;30.90;94878.47;5035888;28;20193;-70
2022/09/15 08:58:24;;;;;;;0.97;0.90;;;;;;;29.54;31.04;94866.16;5030544;28;20208;-69
2022/09/15 09:01:14;;;;;;;0.73;0.73;;;;;;;29.90;29.62;94859.84;5050395;28;20540;-68
2022/09/15 09:04:11;;;;;;;1.80;1.07;;;;;;;29.22;31.98;94836.22;5039830;28;20580;-69
2022/09/15 09:06:58;;;;;;;13.47;0.80;;;;;;;29.61;31.38;94855.41;5031722;28;20225;-71
2022/09/15 09:09:42;;;;;;;0.60;0.60;;;;;;;30.28;30.87;94842.25;5030556;28;20233;-69
2022/09/15 09:12:31;;;;;;;1.90;1.40;;;;;;;30.47;30.25;94852.75;5044970;28;20208;-71
2022/09/15 09:15:19;;;;;;;0.57;0.57;;;;;;;30.15;29.42;94847.22;5031709;28;20742;-72
2022/09/15 09:18:17;;;;;;;0.50;0.50;;;;;;;30.18;30.61;94853.78;5048722;28;20616;-68
2022/09/15 09:20:50;;;;;;;2.10;0.67;;;;;;;30.31;29.29;94839.56;5051389;28;20192;-70
2022/09/15 09:23:22;;;;;;;0.83;0.83;;;;;;;30.44;30.06;94832.66;5037800;28;20295;-69
2022/09/15 09:25:51;;;;;;;0.60;0.60;;;;;;;31.07;30.34;94837.41;5037219;28;20243;-71
2022/09/15 09:28:46;;;;;;;0.50;0.37;;;;;;;31.41;28.96;94830.47;5031616;28;20217;-68
2022/09/15 09:31:24;;;;;;;0.30;0.30;;;;;;;31.17;28.48;94825.06;5033519;28;20193;-70
2022/09/15 09:34:12;;;;;;;0.83;0.83;;;;;;;31.18;28.07;94813.03;5051302;28;20280;-70
2022/09/15 09:36:39;;;;;;;1.23;0.97;;;;;;;31.23;27.99;94813.44;5051359;28;20200;-69
2022/09/15 09:39:12;;;;;;;0.47;0.47;;;;;;;31.10;28.10;94809.56;5051433;28;20606;-70
2022/09/15 09:41:40;;;;;;;1.43;0.80;;;;;;;31.15;27.79;94800.31;5036959;28;20631;-71
2022/09/15 09:44:13;;;;;;;32.67;2.80;;;;;;;31.71;28.04;94800.22;5050848;28;20607;-70
2022/09/15 09:46:42;;;;;;;0.73;0.73;;;;;;;30.77;29.20;94813.41;5033276;28;20209;-72
2022/09/15 09:49:21;;;;;;;0.83;0.83;;;;;;;31.21;29.07;94823.88;5041479;28;20650;-71
2022/09/15 09:51:51;;;;;;;0.87;0.87;;;;;;;31.41;28.93;94822.34;5033275;28;20197;-72
2022/09/15 09:54:20;;;;;;;0.27;0.27;;;;;;;31.58;27.58;94818.06;5031335;28;20221;-70
2022/09/15 09:56:49;;;;;;;0.53;0.53;;;;;;;31.99;27.36;94815.66;5031114;28;20200;-70
2022/09/15 09:59:33;;;;;;;0.50;0.50;;;;;;;32.22;28.56;94814.00;5050065;28;20243;-70
2022/09/15 10:02:09;;;;;;;1.57;1.47;;;;;;;32.79;27.31;94801.66;5050875;28;20197;-70
2022/09/15 10:04:38;;;;;;;0.17;0.17;;;;;;;32.35;27.93;94806.19;5043678;28;20208;-71
2022/09/15 10:07:06;;;;;;;0.63;0.63;;;;;;;32.36;26.72;94797.63;5044430;28;20228;-68
2022/09/15 10:09:33;;;;;;;2.10;1.13;;;;;;;32.83;25.98;94785.34;5039083;28;20230;-69
2022/09/15 10:12:04;;;;;;;4.53;1.87;;;;;;;32.76;27.21;94794.31;5055429;28;20227;-70
2022/09/15 10:14:34;;;;;;;1.77;1.00;;;;;;;32.92;26.21;94774.03;5044122;28;20204;-69
2022/09/15 10:17:20;;;;;;;0.60;0.60;;;;;;;33.00;26.94;94779.03;5039820;28;20193;-71
2022/09/15 10:19:49;;;;;;;0.70;0.70;;;;;;;32.85;28.24;94779.53;5037359;28;20197;-71
2022/09/15 10:22:34;;;;;;;0.53;0.53;;;;;;;32.88;28.14;94773.28;5050598;28;20228;-70
2022/09/15 10:25:25;;;;;;;1.57;0.80;;;;;;;33.29;28.44;94788.47;5043001;28;20553;-71
2022/09/15 10:28:16;;;;;;;1.60;1.13;;;;;;;33.33;26.65;94783.00;5049276;28;20223;-70
2022/09/15 10:31:05;;;;;;;1.20;1.03;;;;;;;33.73;26.73;94779.50;5037859;28;20211;-72
2022/09/15 10:33:37;;;;;;;0.77;0.77;;;;;;;33.62;25.86;94773.41;5030071;28;20203;-72
2022/09/15 10:36:04;;;;;;;2.00;0.90;;;;;;;33.64;27.24;94771.06;5044374;28;20194;-71
2022/09/15 10:38:38;;;;;;;0.70;0.70;;;;;;;33.57;26.29;94771.16;5050049;28;20210;-68
2022/09/15 10:41:23;;;;;;;1.17;0.93;;;;;;;33.75;25.72;94764.34;5036401;28;20200;-71
2022/09/15 10:44:08;;;;;;;0.37;0.37;;;;;;;33.47;24.90;94761.16;5030159;28;20231;-71
2022/09/15 10:47:13;;;;;;;0.70;0.60;;;;;;;34.01;25.66;94760.19;5043884;28;20217;-70
2022/09/15 10:49:48;;;;;;;1.10;0.90;;;;;;;34.24;25.74;94756.75;5029124;28;20224;-71
2022/09/15 10:52:31;;;;;;;2.07;1.30;;;;;;;34.05;27.78;94760.88;5030155;28;20189;-70
2022/09/15 10:55:01;;;;;;;2.57;1.47;;;;;;;33.63;26.37;94758.66;5031484;28;20792;-71
2022/09/15 10:57:56;;;;;;;1.60;1.07;;;;;;;33.86;25.51;94750.63;5035679;28;20223;-69
2022/09/15 11:00:26;;;;;;;0.53;0.53;;;;;;;33.91;24.90;94735.78;5050518;28;20235;-70
2022/09/15 11:03:17;;;;;;;0.47;0.47;;;;;;;34.64;25.18;94745.72;5037669;28;20204;-68
2022/09/15 11:06:31;;;;;;;9.03;1.47;;;;;;;34.33;26.56;94741.47;5050126;28;20250;-70
2022/09/15 11:09:20;;;;;;;0.60;0.60;;;;;;;34.16;23.66;94731.59;5048978;28;20923;-68
2022/09/15 11:12:15;;;;;;;2.97;0.80;;;;;;;33.70;23.72;94736.84;5049696;28;20934;-72
2022/09/15 11:14:57;;;;;;;3.77;1.00;;;;;;;33.99;22.83;94719.03;5043325;28;20240;-70
2022/09/15 11:17:39;;;;;;;0.43;0.43;;;;;;;34.47;22.75;94716.81;5030220;28;20212;-70
2022/09/15 11:20:12;;;;;;;1.60;0.77;;;;;;;34.73;24.08;94709.78;5040687;28;20648;-71
2022/09/15 11:22:51;;;;;;;1.07;0.73;;;;;;;34.47;23.10;94713.34;5045413;28;20197;-70
2022/09/15 11:25:29;;;;;;;1.27;1.20;;;;;;;34.61;22.52;94713.09;5040000;28;20200;-69
2022/09/15 11:28:18;;;;;;;0.57;0.57;;;;;;;34.66;22.00;94716.13;5043404;28;20244;-70
2022/09/15 11:31:10;;;;;;;0.20;0.20;;;;;;;34.72;22.81;94710.97;5042177;28;20193;-72
2022/09/15 11:33:48;;;;;;;0.37;0.37;;;;;;;34.73;22.97;94707.84;5029045;28;20189;-70
2022/09/15 11:36:24;;;;;;;1.80;1.50;;;;;;;35.18;24.50;94707.50;5045266;28;20694;-70
2022/09/15 11:38:58;;;;;;;1.20;1.10;;;;;;;35.20;22.22;94699.69;5049418;28;20246;-68
2022/09/15 11:41:42;;;;;;;1.60;0.33;;;;;;;35.73;21.92;94704.88;5033271;28;20552;-71
2022/09/15 11:44:15;;;;;;;0.30;0.30;;;;;;;35.83;22.13;94698.47;5040018;28;20647;-70
2022/09/15 11:47:04;;;;;;;0.50;0.50;;;;;;;36.07;22.15;94697.19;5050176;28;20557;-71
2022/09/15 11:50:04;;;;;;;0.93;0.93;;;;;;;36.20;20.99;94687.16;5053238;28;20238;-70
2022/09/15 11:52:43;;;;;;;0.60;0.60;;;;;;;36.38;20.40;94689.50;5033547;28;20212;-70
2022/09/15 11:55:32;;;;;;;0.83;0.67;;;;;;;36.43;21.29;94681.59;5050366;28;20676;-69
2022/09/15 11:58:12;;;;;;;0.50;0.50;;;;;;;36.47;21.47;94676.03;5033347;28;20215;-72
2022/09/15 12:00:54;;;;;;;0.50;0.50;;;;;;;36.92;20.66;94665.19;5047025;28;20280;-70